Waswanipi, Canada
Current Conditions -  °F | °C
As of 8:00 PM on Wednesday 17 Dec 2014 (Local Time) from CYNM Reporting Station
Overcast Overcast  
Wind Chill:   Ceiling: 800
Heat Index: 16°   Visibility: 9mi
Dew Point: 14°   Wind: 12mph
Humidity: 93%   Direction: 350°N
Pressure: 29.97"   Gusts: 18mph
Location:  49.65°N, 76.48°W
Report Text: CYNM 180100Z AUTO 35010G16KT 9SM OVC008 M09/M10 A2997 RMK SLP169
Loading
Personal Weather Stations






























Interactive Weather Map New forecast layout! Learn more

10-Day Weather Forecast

Advertisements
Track Severe Weather on mobile